sensor_id;sensor_type;location;lat;lon;timestamp;P1;durP1;ratioP1;P2;durP2;ratioP2
12296;SDS011;6211;49.124;9.152;2023-05-07T00:00:55;2.53;;;2.33;;
12296;SDS011;6211;49.124;9.152;2023-05-07T00:03:24;2.53;;;2.33;;
12296;SDS011;6211;49.124;9.152;2023-05-07T00:05:52;2.53;;;2.33;;
12296;SDS011;6211;49.124;9.152;2023-05-07T00:08:19;2.53;;;2.25;;
12296;SDS011;6211;49.124;9.152;2023-05-07T00:10:46;2.63;;;1.92;;
12296;SDS011;6211;49.124;9.152;2023-05-07T00:13:13;3.17;;;2.40;;
12296;SDS011;6211;49.124;9.152;2023-05-07T00:15:40;3.65;;;2.72;;
12296;SDS011;6211;49.124;9.152;2023-05-07T00:18:09;3.22;;;2.60;;
12296;SDS011;6211;49.124;9.152;2023-05-07T00:20:36;2.25;;;2.10;;
12296;SDS011;6211;49.124;9.152;2023-05-07T00:23:03;3.30;;;2.90;;
12296;SDS011;6211;49.124;9.152;2023-05-07T00:25:30;3.33;;;2.60;;
12296;SDS011;6211;49.124;9.152;2023-05-07T00:27:57;2.65;;;2.38;;
12296;SDS011;6211;49.124;9.152;2023-05-07T00:30:28;5.85;;;2.45;;
12296;SDS011;6211;49.124;9.152;2023-05-07T00:32:55;2.50;;;2.15;;
12296;SDS011;6211;49.124;9.152;2023-05-07T00:35:24;2.50;;;2.30;;
12296;SDS011;6211;49.124;9.152;2023-05-07T00:37:51;2.30;;;2.10;;
12296;SDS011;6211;49.124;9.152;2023-05-07T00:40:18;2.55;;;2.35;;
12296;SDS011;6211;49.124;9.152;2023-05-07T00:42:45;2.45;;;2.25;;
12296;SDS011;6211;49.124;9.152;2023-05-07T00:45:14;2.15;;;1.98;;
12296;SDS011;6211;49.124;9.152;2023-05-07T00:47:42;2.50;;;2.30;;
12296;SDS011;6211;49.124;9.152;2023-05-07T00:50:09;3.28;;;2.42;;
12296;SDS011;6211;49.124;9.152;2023-05-07T00:52:38;3.63;;;2.17;;
12296;SDS011;6211;49.124;9.152;2023-05-07T00:55:06;2.92;;;2.00;;
12296;SDS011;6211;49.124;9.152;2023-05-07T00:57:35;2.15;;;1.95;;
12296;SDS011;6211;49.124;9.152;2023-05-07T01:00:03;2.40;;;2.20;;
12296;SDS011;6211;49.124;9.152;2023-05-07T01:02:30;4.10;;;1.90;;
12296;SDS011;6211;49.124;9.152;2023-05-07T01:04:58;2.08;;;1.88;;
12296;SDS011;6211;49.124;9.152;2023-05-07T01:07:25;3.00;;;1.88;;
12296;SDS011;6211;49.124;9.152;2023-05-07T01:09:53;2.22;;;2.03;;
12296;SDS011;6211;49.124;9.152;2023-05-07T01:12:20;2.42;;;2.13;;
12296;SDS011;6211;49.124;9.152;2023-05-07T01:14:47;4.13;;;2.75;;
12296;SDS011;6211;49.124;9.152;2023-05-07T01:17:15;5.55;;;2.60;;
12296;SDS011;6211;49.124;9.152;2023-05-07T01:19:42;2.40;;;2.20;;
12296;SDS011;6211;49.124;9.152;2023-05-07T01:22:10;2.20;;;2.05;;
12296;SDS011;6211;49.124;9.152;2023-05-07T01:24:38;3.60;;;2.13;;
12296;SDS011;6211;49.124;9.152;2023-05-07T01:27:05;2.13;;;1.88;;
12296;SDS011;6211;49.124;9.152;2023-05-07T01:29:32;2.47;;;2.08;;
12296;SDS011;6211;49.124;9.152;2023-05-07T01:32:00;3.70;;;2.08;;
12296;SDS011;6211;49.124;9.152;2023-05-07T01:34:28;2.70;;;2.47;;
12296;SDS011;6211;49.124;9.152;2023-05-07T01:36:57;2.47;;;2.22;;
12296;SDS011;6211;49.124;9.152;2023-05-07T01:39:25;3.17;;;2.40;;
12296;SDS011;6211;49.124;9.152;2023-05-07T01:41:54;2.10;;;2.00;;
12296;SDS011;6211;49.124;9.152;2023-05-07T01:44:22;2.63;;;2.35;;
12296;SDS011;6211;49.124;9.152;2023-05-07T01:46:49;2.63;;;2.13;;
12296;SDS011;6211;49.124;9.152;2023-05-07T01:49:16;2.72;;;2.53;;
12296;SDS011;6211;49.124;9.152;2023-05-07T01:51:44;2.45;;;2.22;;
12296;SDS011;6211;49.124;9.152;2023-05-07T01:54:11;3.35;;;2.85;;
12296;SDS011;6211;49.124;9.152;2023-05-07T01:56:38;2.42;;;2.22;;
12296;SDS011;6211;49.124;9.152;2023-05-07T01:59:06;2.85;;;2.25;;
12296;SDS011;6211;49.124;9.152;2023-05-07T02:01:34;2.60;;;2.40;;
12296;SDS011;6211;49.124;9.152;2023-05-07T02:04:01;2.78;;;2.50;;
12296;SDS011;6211;49.124;9.152;2023-05-07T02:06:28;3.05;;;2.60;;
12296;SDS011;6211;49.124;9.152;2023-05-07T02:08:56;2.17;;;1.98;;
12296;SDS011;6211;49.124;9.152;2023-05-07T02:11:23;2.78;;;2.45;;
12296;SDS011;6211;49.124;9.152;2023-05-07T02:13:50;7.55;;;2.60;;
12296;SDS011;6211;49.124;9.152;2023-05-07T02:16:19;2.58;;;2.33;;
12296;SDS011;6211;49.124;9.152;2023-05-07T02:18:47;2.25;;;2.05;;
12296;SDS011;6211;49.124;9.152;2023-05-07T02:21:14;3.05;;;2.30;;
12296;SDS011;6211;49.124;9.152;2023-05-07T02:23:41;3.55;;;2.17;;
12296;SDS011;6211;49.124;9.152;2023-05-07T02:26:08;2.92;;;2.20;;
12296;SDS011;6211;49.124;9.152;2023-05-07T02:28:36;2.22;;;2.03;;
12296;SDS011;6211;49.124;9.152;2023-05-07T02:31:03;2.63;;;2.42;;
12296;SDS011;6211;49.124;9.152;2023-05-07T02:33:31;3.08;;;2.47;;
12296;SDS011;6211;49.124;9.152;2023-05-07T02:36:04;3.13;;;2.30;;
12296;SDS011;6211;49.124;9.152;2023-05-07T02:38:32;2.13;;;1.92;;
12296;SDS011;6211;49.124;9.152;2023-05-07T02:40:59;2.67;;;2.22;;
12296;SDS011;6211;49.124;9.152;2023-05-07T02:43:26;2.38;;;2.13;;
12296;SDS011;6211;49.124;9.152;2023-05-07T02:45:59;2.33;;;2.13;;
12296;SDS011;6211;49.124;9.152;2023-05-07T02:48:27;2.45;;;2.10;;
12296;SDS011;6211;49.124;9.152;2023-05-07T02:50:56;3.03;;;2.63;;
12296;SDS011;6211;49.124;9.152;2023-05-07T02:53:23;3.05;;;2.22;;
12296;SDS011;6211;49.124;9.152;2023-05-07T02:55:51;2.75;;;2.30;;
12296;SDS011;6211;49.124;9.152;2023-05-07T02:58:18;2.70;;;2.50;;
12296;SDS011;6211;49.124;9.152;2023-05-07T03:00:45;2.80;;;2.60;;
12296;SDS011;6211;49.124;9.152;2023-05-07T03:03:13;2.33;;;2.03;;
12296;SDS011;6211;49.124;9.152;2023-05-07T03:05:40;4.18;;;3.10;;
12296;SDS011;6211;49.124;9.152;2023-05-07T03:08:08;2.38;;;2.17;;
12296;SDS011;6211;49.124;9.152;2023-05-07T03:10:36;5.22;;;3.00;;
12296;SDS011;6211;49.124;9.152;2023-05-07T03:13:03;2.80;;;2.53;;
12296;SDS011;6211;49.124;9.152;2023-05-07T03:15:30;4.03;;;2.45;;
12296;SDS011;6211;49.124;9.152;2023-05-07T03:17:57;2.50;;;2.30;;
12296;SDS011;6211;49.124;9.152;2023-05-07T03:20:24;2.42;;;2.22;;
12296;SDS011;6211;49.124;9.152;2023-05-07T03:22:51;3.00;;;2.53;;
12296;SDS011;6211;49.124;9.152;2023-05-07T03:25:20;2.85;;;2.30;;
12296;SDS011;6211;49.124;9.152;2023-05-07T03:27:47;3.10;;;2.28;;
12296;SDS011;6211;49.124;9.152;2023-05-07T03:30:14;3.15;;;2.47;;
12296;SDS011;6211;49.124;9.152;2023-05-07T03:32:41;2.92;;;2.47;;
12296;SDS011;6211;49.124;9.152;2023-05-07T03:35:08;2.80;;;2.60;;
12296;SDS011;6211;49.124;9.152;2023-05-07T03:37:35;3.65;;;2.47;;
12296;SDS011;6211;49.124;9.152;2023-05-07T03:40:03;4.18;;;2.88;;
12296;SDS011;6211;49.124;9.152;2023-05-07T03:42:31;3.00;;;2.72;;
12296;SDS011;6211;49.124;9.152;2023-05-07T03:44:58;3.42;;;3.10;;
12296;SDS011;6211;49.124;9.152;2023-05-07T03:47:25;4.75;;;2.60;;
12296;SDS011;6211;49.124;9.152;2023-05-07T03:49:52;3.42;;;2.63;;
12296;SDS011;6211;49.124;9.152;2023-05-07T03:52:20;2.60;;;2.40;;
12296;SDS011;6211;49.124;9.152;2023-05-07T03:54:50;3.03;;;2.75;;
12296;SDS011;6211;49.124;9.152;2023-05-07T03:57:18;3.10;;;2.70;;
12296;SDS011;6211;49.124;9.152;2023-05-07T03:59:46;3.25;;;2.88;;
12296;SDS011;6211;49.124;9.152;2023-05-07T04:02:13;3.05;;;2.72;;
12296;SDS011;6211;49.124;9.152;2023-05-07T04:04:40;3.08;;;2.80;;
12296;SDS011;6211;49.124;9.152;2023-05-07T04:07:07;3.78;;;3.00;;
12296;SDS011;6211;49.124;9.152;2023-05-07T04:09:34;3.03;;;2.78;;
12296;SDS011;6211;49.124;9.152;2023-05-07T04:12:02;2.97;;;2.63;;
12296;SDS011;6211;49.124;9.152;2023-05-07T04:14:29;2.85;;;2.65;;
12296;SDS011;6211;49.124;9.152;2023-05-07T04:16:58;2.97;;;2.70;;
12296;SDS011;6211;49.124;9.152;2023-05-07T04:19:25;2.42;;;2.22;;
12296;SDS011;6211;49.124;9.152;2023-05-07T04:21:52;3.10;;;2.80;;
12296;SDS011;6211;49.124;9.152;2023-05-07T04:24:19;2.53;;;2.33;;
12296;SDS011;6211;49.124;9.152;2023-05-07T04:26:46;2.63;;;2.40;;
12296;SDS011;6211;49.124;9.152;2023-05-07T04:29:13;3.00;;;2.65;;
12296;SDS011;6211;49.124;9.152;2023-05-07T04:31:41;3.85;;;2.67;;
12296;SDS011;6211;49.124;9.152;2023-05-07T04:34:10;2.30;;;2.10;;
12296;SDS011;6211;49.124;9.152;2023-05-07T04:36:38;3.63;;;2.47;;
12296;SDS011;6211;49.124;9.152;2023-05-07T04:39:05;4.80;;;2.38;;
12296;SDS011;6211;49.124;9.152;2023-05-07T04:41:32;2.92;;;2.22;;
12296;SDS011;6211;49.124;9.152;2023-05-07T04:44:01;3.63;;;2.47;;
12296;SDS011;6211;49.124;9.152;2023-05-07T04:46:29;2.53;;;2.33;;
12296;SDS011;6211;49.124;9.152;2023-05-07T04:48:56;5.68;;;2.58;;
12296;SDS011;6211;49.124;9.152;2023-05-07T04:51:24;2.90;;;2.28;;
12296;SDS011;6211;49.124;9.152;2023-05-07T04:53:53;3.15;;;2.78;;
12296;SDS011;6211;49.124;9.152;2023-05-07T04:56:20;3.03;;;2.72;;
12296;SDS011;6211;49.124;9.152;2023-05-07T04:58:47;2.75;;;2.55;;
12296;SDS011;6211;49.124;9.152;2023-05-07T05:01:14;2.40;;;2.20;;
12296;SDS011;6211;49.124;9.152;2023-05-07T05:03:41;2.50;;;2.28;;
12296;SDS011;6211;49.124;9.152;2023-05-07T05:06:08;2.50;;;2.30;;
12296;SDS011;6211;49.124;9.152;2023-05-07T05:08:36;4.65;;;2.35;;
12296;SDS011;6211;49.124;9.152;2023-05-07T05:11:03;3.10;;;2.80;;
12296;SDS011;6211;49.124;9.152;2023-05-07T05:13:31;2.40;;;2.20;;
12296;SDS011;6211;49.124;9.152;2023-05-07T05:15:58;2.50;;;2.25;;
12296;SDS011;6211;49.124;9.152;2023-05-07T05:18:25;2.80;;;2.50;;
12296;SDS011;6211;49.124;9.152;2023-05-07T05:20:52;4.65;;;2.47;;
12296;SDS011;6211;49.124;9.152;2023-05-07T05:23:19;4.13;;;2.05;;
12296;SDS011;6211;49.124;9.152;2023-05-07T05:25:47;2.75;;;2.45;;
12296;SDS011;6211;49.124;9.152;2023-05-07T05:28:14;7.13;;;2.40;;
12296;SDS011;6211;49.124;9.152;2023-05-07T05:30:41;2.63;;;2.40;;
12296;SDS011;6211;49.124;9.152;2023-05-07T05:33:08;2.72;;;2.22;;
12296;SDS011;6211;49.124;9.152;2023-05-07T05:35:35;2.22;;;2.05;;
12296;SDS011;6211;49.124;9.152;2023-05-07T05:38:03;2.58;;;2.30;;
12296;SDS011;6211;49.124;9.152;2023-05-07T05:40:30;3.55;;;2.42;;
12296;SDS011;6211;49.124;9.152;2023-05-07T05:42:58;2.58;;;2.38;;
12296;SDS011;6211;49.124;9.152;2023-05-07T05:45:25;2.88;;;2.67;;
12296;SDS011;6211;49.124;9.152;2023-05-07T05:47:52;2.42;;;2.20;;
12296;SDS011;6211;49.124;9.152;2023-05-07T05:50:19;8.45;;;2.53;;
12296;SDS011;6211;49.124;9.152;2023-05-07T05:52:46;2.60;;;2.40;;
12296;SDS011;6211;49.124;9.152;2023-05-07T05:55:14;2.75;;;2.28;;
12296;SDS011;6211;49.124;9.152;2023-05-07T05:57:41;2.65;;;2.38;;
12296;SDS011;6211;49.124;9.152;2023-05-07T06:00:10;2.45;;;2.25;;
12296;SDS011;6211;49.124;9.152;2023-05-07T06:02:37;2.67;;;2.47;;
12296;SDS011;6211;49.124;9.152;2023-05-07T06:05:04;3.13;;;2.55;;
12296;SDS011;6211;49.124;9.152;2023-05-07T06:07:32;2.33;;;2.13;;
12296;SDS011;6211;49.124;9.152;2023-05-07T06:09:59;2.40;;;2.20;;
12296;SDS011;6211;49.124;9.152;2023-05-07T06:12:26;2.33;;;2.13;;
12296;SDS011;6211;49.124;9.152;2023-05-07T06:14:53;3.35;;;2.35;;
12296;SDS011;6211;49.124;9.152;2023-05-07T06:17:22;3.17;;;2.33;;
12296;SDS011;6211;49.124;9.152;2023-05-07T06:19:49;2.22;;;2.10;;
12296;SDS011;6211;49.124;9.152;2023-05-07T06:22:16;2.42;;;2.22;;
12296;SDS011;6211;49.124;9.152;2023-05-07T06:24:43;2.42;;;2.22;;
12296;SDS011;6211;49.124;9.152;2023-05-07T06:27:11;2.55;;;2.22;;
12296;SDS011;6211;49.124;9.152;2023-05-07T06:29:38;3.28;;;2.58;;
12296;SDS011;6211;49.124;9.152;2023-05-07T06:32:08;2.55;;;2.20;;
12296;SDS011;6211;49.124;9.152;2023-05-07T06:37:24;2.40;;;2.20;;
12296;SDS011;6211;49.124;9.152;2023-05-07T06:39:51;2.40;;;2.20;;
12296;SDS011;6211;49.124;9.152;2023-05-07T06:42:18;2.53;;;2.30;;
12296;SDS011;6211;49.124;9.152;2023-05-07T06:44:45;3.30;;;2.47;;
12296;SDS011;6211;49.124;9.152;2023-05-07T06:47:12;5.03;;;2.38;;
12296;SDS011;6211;49.124;9.152;2023-05-07T06:49:39;2.75;;;2.42;;
12296;SDS011;6211;49.124;9.152;2023-05-07T06:52:06;3.10;;;2.28;;
12296;SDS011;6211;49.124;9.152;2023-05-07T06:54:35;3.15;;;2.72;;
12296;SDS011;6211;49.124;9.152;2023-05-07T06:57:02;2.70;;;2.22;;
12296;SDS011;6211;49.124;9.152;2023-05-07T06:59:29;2.00;;;1.90;;
12296;SDS011;6211;49.124;9.152;2023-05-07T07:01:56;3.25;;;2.65;;
12296;SDS011;6211;49.124;9.152;2023-05-07T07:04:23;2.40;;;2.20;;
12296;SDS011;6211;49.124;9.152;2023-05-07T07:06:51;3.67;;;2.17;;
12296;SDS011;6211;49.124;9.152;2023-05-07T07:09:18;2.00;;;1.90;;
12296;SDS011;6211;49.124;9.152;2023-05-07T07:11:46;2.45;;;2.17;;
12296;SDS011;6211;49.124;9.152;2023-05-07T07:14:14;2.20;;;1.92;;
12296;SDS011;6211;49.124;9.152;2023-05-07T07:16:41;2.38;;;2.17;;
12296;SDS011;6211;49.124;9.152;2023-05-07T07:19:08;2.05;;;1.95;;
12296;SDS011;6211;49.124;9.152;2023-05-07T07:21:35;2.30;;;2.08;;
12296;SDS011;6211;49.124;9.152;2023-05-07T07:24:02;2.63;;;2.20;;
12296;SDS011;6211;49.124;9.152;2023-05-07T07:26:29;4.57;;;1.80;;
12296;SDS011;6211;49.124;9.152;2023-05-07T07:28:58;2.63;;;1.80;;
12296;SDS011;6211;49.124;9.152;2023-05-07T07:31:25;2.42;;;2.22;;
12296;SDS011;6211;49.124;9.152;2023-05-07T07:33:52;1.90;;;1.65;;
12296;SDS011;6211;49.124;9.152;2023-05-07T07:36:19;2.55;;;1.88;;
12296;SDS011;6211;49.124;9.152;2023-05-07T07:38:46;1.75;;;1.65;;
12296;SDS011;6211;49.124;9.152;2023-05-07T07:41:13;1.63;;;1.50;;
12296;SDS011;6211;49.124;9.152;2023-05-07T07:43:40;1.70;;;1.60;;
12296;SDS011;6211;49.124;9.152;2023-05-07T07:46:09;2.47;;;1.95;;
12296;SDS011;6211;49.124;9.152;2023-05-07T07:48:36;3.28;;;1.58;;
12296;SDS011;6211;49.124;9.152;2023-05-07T07:51:03;3.63;;;1.75;;
12296;SDS011;6211;49.124;9.152;2023-05-07T07:53:30;2.15;;;1.83;;
12296;SDS011;6211;49.124;9.152;2023-05-07T07:55:57;2.25;;;2.05;;
12296;SDS011;6211;49.124;9.152;2023-05-07T07:58:25;2.70;;;1.75;;
12296;SDS011;6211;49.124;9.152;2023-05-07T08:00:52;2.40;;;2.00;;
12296;SDS011;6211;49.124;9.152;2023-05-07T08:03:22;2.05;;;1.95;;
12296;SDS011;6211;49.124;9.152;2023-05-07T08:05:49;2.25;;;1.90;;
12296;SDS011;6211;49.124;9.152;2023-05-07T08:08:16;1.75;;;1.65;;
12296;SDS011;6211;49.124;9.152;2023-05-07T08:10:43;1.60;;;1.50;;
12296;SDS011;6211;49.124;9.152;2023-05-07T08:13:10;3.30;;;1.73;;
12296;SDS011;6211;49.124;9.152;2023-05-07T08:15:37;3.35;;;1.73;;
12296;SDS011;6211;49.124;9.152;2023-05-07T08:18:04;2.10;;;2.00;;
12296;SDS011;6211;49.124;9.152;2023-05-07T08:20:33;2.15;;;1.92;;
12296;SDS011;6211;49.124;9.152;2023-05-07T08:23:04;2.92;;;1.80;;
12296;SDS011;6211;49.124;9.152;2023-05-07T08:25:32;2.35;;;1.90;;
12296;SDS011;6211;49.124;9.152;2023-05-07T08:27:59;2.33;;;2.10;;
12296;SDS011;6211;49.124;9.152;2023-05-07T08:30:28;1.88;;;1.77;;
12296;SDS011;6211;49.124;9.152;2023-05-07T08:32:55;1.90;;;1.77;;
12296;SDS011;6211;49.124;9.152;2023-05-07T08:35:22;2.95;;;1.73;;
12296;SDS011;6211;49.124;9.152;2023-05-07T08:37:51;3.38;;;2.08;;
12296;SDS011;6211;49.124;9.152;2023-05-07T08:40:19;2.10;;;1.90;;
12296;SDS011;6211;49.124;9.152;2023-05-07T08:42:48;1.88;;;1.77;;
12296;SDS011;6211;49.124;9.152;2023-05-07T08:45:15;1.92;;;1.83;;
12296;SDS011;6211;49.124;9.152;2023-05-07T08:47:44;2.20;;;2.00;;
12296;SDS011;6211;49.124;9.152;2023-05-07T08:50:13;2.60;;;2.00;;
12296;SDS011;6211;49.124;9.152;2023-05-07T08:52:40;4.35;;;1.80;;
12296;SDS011;6211;49.124;9.152;2023-05-07T08:55:09;2.25;;;2.03;;
12296;SDS011;6211;49.124;9.152;2023-05-07T08:57:36;2.08;;;1.98;;
12296;SDS011;6211;49.124;9.152;2023-05-07T09:00:04;1.75;;;1.65;;
12296;SDS011;6211;49.124;9.152;2023-05-07T09:02:32;1.98;;;1.88;;
12296;SDS011;6211;49.124;9.152;2023-05-07T09:04:59;2.10;;;1.73;;
12296;SDS011;6211;49.124;9.152;2023-05-07T09:07:26;2.13;;;1.92;;
12296;SDS011;6211;49.124;9.152;2023-05-07T09:09:53;2.30;;;2.05;;
12296;SDS011;6211;49.124;9.152;2023-05-07T09:12:23;1.77;;;1.67;;
12296;SDS011;6211;49.124;9.152;2023-05-07T09:14:50;2.15;;;1.95;;
12296;SDS011;6211;49.124;9.152;2023-05-07T09:17:17;2.78;;;2.00;;
12296;SDS011;6211;49.124;9.152;2023-05-07T09:19:45;3.17;;;1.98;;
12296;SDS011;6211;49.124;9.152;2023-05-07T09:22:12;2.10;;;1.90;;
12296;SDS011;6211;49.124;9.152;2023-05-07T09:24:39;2.20;;;2.00;;
12296;SDS011;6211;49.124;9.152;2023-05-07T09:27:07;1.60;;;1.50;;
12296;SDS011;6211;49.124;9.152;2023-05-07T09:29:39;4.28;;;2.05;;
12296;SDS011;6211;49.124;9.152;2023-05-07T09:32:07;2.40;;;2.20;;
12296;SDS011;6211;49.124;9.152;2023-05-07T09:34:34;2.47;;;2.10;;
12296;SDS011;6211;49.124;9.152;2023-05-07T09:37:01;1.90;;;1.70;;
12296;SDS011;6211;49.124;9.152;2023-05-07T09:39:38;2.05;;;1.88;;
12296;SDS011;6211;49.124;9.152;2023-05-07T09:42:05;1.85;;;1.65;;
12296;SDS011;6211;49.124;9.152;2023-05-07T09:44:33;2.97;;;2.17;;
12296;SDS011;6211;49.124;9.152;2023-05-07T09:47:02;2.08;;;1.88;;
12296;SDS011;6211;49.124;9.152;2023-05-07T09:49:32;2.15;;;2.00;;
12296;SDS011;6211;49.124;9.152;2023-05-07T09:52:00;2.38;;;2.17;;
12296;SDS011;6211;49.124;9.152;2023-05-07T09:54:28;1.88;;;1.75;;
12296;SDS011;6211;49.124;9.152;2023-05-07T09:56:56;2.03;;;1.90;;
12296;SDS011;6211;49.124;9.152;2023-05-07T09:59:27;1.88;;;1.60;;
12296;SDS011;6211;49.124;9.152;2023-05-07T10:01:56;3.05;;;2.00;;
12296;SDS011;6211;49.124;9.152;2023-05-07T10:04:25;3.63;;;2.42;;
12296;SDS011;6211;49.124;9.152;2023-05-07T10:06:52;3.15;;;2.00;;
12296;SDS011;6211;49.124;9.152;2023-05-07T10:09:20;3.13;;;2.10;;
12296;SDS011;6211;49.124;9.152;2023-05-07T10:11:47;2.13;;;1.92;;
12296;SDS011;6211;49.124;9.152;2023-05-07T10:14:15;2.67;;;1.95;;
12296;SDS011;6211;49.124;9.152;2023-05-07T10:16:42;2.10;;;1.90;;
12296;SDS011;6211;49.124;9.152;2023-05-07T10:19:09;2.22;;;2.00;;
12296;SDS011;6211;49.124;9.152;2023-05-07T10:21:39;2.85;;;2.05;;
12296;SDS011;6211;49.124;9.152;2023-05-07T10:24:08;2.00;;;1.90;;
12296;SDS011;6211;49.124;9.152;2023-05-07T10:26:39;2.10;;;1.90;;
12296;SDS011;6211;49.124;9.152;2023-05-07T10:29:07;1.75;;;1.65;;
12296;SDS011;6211;49.124;9.152;2023-05-07T10:31:42;2.10;;;1.90;;
12296;SDS011;6211;49.124;9.152;2023-05-07T10:34:13;3.25;;;2.17;;
12296;SDS011;6211;49.124;9.152;2023-05-07T10:36:43;2.33;;;1.98;;
12296;SDS011;6211;49.124;9.152;2023-05-07T10:39:11;1.73;;;1.63;;
12296;SDS011;6211;49.124;9.152;2023-05-07T10:41:38;1.88;;;1.77;;
12296;SDS011;6211;49.124;9.152;2023-05-07T10:44:05;1.88;;;1.77;;
12296;SDS011;6211;49.124;9.152;2023-05-07T10:46:33;1.83;;;1.63;;
12296;SDS011;6211;49.124;9.152;2023-05-07T10:49:06;2.60;;;1.65;;
12296;SDS011;6211;49.124;9.152;2023-05-07T10:51:35;1.85;;;1.70;;
12296;SDS011;6211;49.124;9.152;2023-05-07T10:54:22;4.10;;;1.90;;
12296;SDS011;6211;49.124;9.152;2023-05-07T10:56:52;3.05;;;1.50;;
12296;SDS011;6211;49.124;9.152;2023-05-07T10:59:29;2.20;;;1.67;;
12296;SDS011;6211;49.124;9.152;2023-05-07T11:01:57;3.58;;;1.92;;
12296;SDS011;6211;49.124;9.152;2023-05-07T11:04:27;2.13;;;1.55;;
12296;SDS011;6211;49.124;9.152;2023-05-07T11:07:12;1.73;;;1.52;;
12296;SDS011;6211;49.124;9.152;2023-05-07T11:09:58;1.75;;;1.65;;
12296;SDS011;6211;49.124;9.152;2023-05-07T11:15:12;1.60;;;1.50;;
12296;SDS011;6211;49.124;9.152;2023-05-07T11:17:51;1.58;;;1.40;;
12296;SDS011;6211;49.124;9.152;2023-05-07T11:20:19;1.70;;;1.60;;
12296;SDS011;6211;49.124;9.152;2023-05-07T11:22:46;3.38;;;1.65;;
12296;SDS011;6211;49.124;9.152;2023-05-07T11:25:18;1.90;;;1.58;;
12296;SDS011;6211;49.124;9.152;2023-05-07T11:27:45;1.70;;;1.60;;
12296;SDS011;6211;49.124;9.152;2023-05-07T11:30:16;1.35;;;1.23;;
12296;SDS011;6211;49.124;9.152;2023-05-07T11:32:46;2.17;;;1.20;;
12296;SDS011;6211;49.124;9.152;2023-05-07T11:35:13;2.00;;;1.30;;
12296;SDS011;6211;49.124;9.152;2023-05-07T11:37:42;1.20;;;1.10;;
12296;SDS011;6211;49.124;9.152;2023-05-07T11:40:11;1.35;;;1.25;;
12296;SDS011;6211;49.124;9.152;2023-05-07T11:42:40;3.28;;;1.45;;
12296;SDS011;6211;49.124;9.152;2023-05-07T11:45:08;1.42;;;1.10;;
12296;SDS011;6211;49.124;9.152;2023-05-07T11:47:35;1.00;;;1.00;;
12296;SDS011;6211;49.124;9.152;2023-05-07T11:50:03;1.33;;;1.20;;
12296;SDS011;6211;49.124;9.152;2023-05-07T11:52:30;1.02;;;0.93;;
12296;SDS011;6211;49.124;9.152;2023-05-07T11:54:58;2.45;;;1.30;;
12296;SDS011;6211;49.124;9.152;2023-05-07T11:57:26;1.00;;;0.90;;
12296;SDS011;6211;49.124;9.152;2023-05-07T11:59:55;1.10;;;1.08;;
12296;SDS011;6211;49.124;9.152;2023-05-07T12:02:22;1.38;;;1.08;;
12296;SDS011;6211;49.124;9.152;2023-05-07T12:04:50;1.00;;;0.90;;
12296;SDS011;6211;49.124;9.152;2023-05-07T12:07:17;0.82;;;0.82;;
12296;SDS011;6211;49.124;9.152;2023-05-07T12:09:44;1.55;;;0.95;;
12296;SDS011;6211;49.124;9.152;2023-05-07T12:12:12;1.02;;;0.93;;
12296;SDS011;6211;49.124;9.152;2023-05-07T12:14:40;1.50;;;1.05;;
12296;SDS011;6211;49.124;9.152;2023-05-07T12:17:09;0.80;;;0.80;;
12296;SDS011;6211;49.124;9.152;2023-05-07T12:19:37;1.15;;;1.00;;
12296;SDS011;6211;49.124;9.152;2023-05-07T12:22:04;0.93;;;0.90;;
12296;SDS011;6211;49.124;9.152;2023-05-07T12:24:42;0.85;;;0.85;;
12296;SDS011;6211;49.124;9.152;2023-05-07T12:27:09;1.60;;;1.00;;
12296;SDS011;6211;49.124;9.152;2023-05-07T12:29:36;1.25;;;0.88;;
12296;SDS011;6211;49.124;9.152;2023-05-07T12:32:05;0.80;;;0.80;;
12296;SDS011;6211;49.124;9.152;2023-05-07T12:34:34;1.25;;;0.82;;
12296;SDS011;6211;49.124;9.152;2023-05-07T12:37:01;0.82;;;0.82;;
12296;SDS011;6211;49.124;9.152;2023-05-07T12:39:29;0.80;;;0.80;;
12296;SDS011;6211;49.124;9.152;2023-05-07T12:41:57;0.80;;;0.80;;
12296;SDS011;6211;49.124;9.152;2023-05-07T12:44:25;0.80;;;0.80;;
12296;SDS011;6211;49.124;9.152;2023-05-07T12:46:55;1.63;;;0.90;;
12296;SDS011;6211;49.124;9.152;2023-05-07T12:49:22;1.35;;;1.02;;
12296;SDS011;6211;49.124;9.152;2023-05-07T12:51:51;0.80;;;0.80;;
12296;SDS011;6211;49.124;9.152;2023-05-07T12:54:30;1.00;;;1.00;;
12296;SDS011;6211;49.124;9.152;2023-05-07T12:57:01;0.88;;;0.88;;
12296;SDS011;6211;49.124;9.152;2023-05-07T12:59:32;0.88;;;0.80;;
12296;SDS011;6211;49.124;9.152;2023-05-07T13:01:59;1.10;;;1.00;;
12296;SDS011;6211;49.124;9.152;2023-05-07T13:04:26;1.17;;;1.05;;
12296;SDS011;6211;49.124;9.152;2023-05-07T13:06:55;0.80;;;0.80;;
12296;SDS011;6211;49.124;9.152;2023-05-07T13:09:22;0.93;;;0.93;;
12296;SDS011;6211;49.124;9.152;2023-05-07T13:11:49;0.88;;;0.88;;
12296;SDS011;6211;49.124;9.152;2023-05-07T13:14:16;1.00;;;0.90;;
12296;SDS011;6211;49.124;9.152;2023-05-07T13:16:45;0.98;;;0.98;;
12296;SDS011;6211;49.124;9.152;2023-05-07T13:19:12;0.80;;;0.80;;
12296;SDS011;6211;49.124;9.152;2023-05-07T13:21:40;1.23;;;1.13;;
12296;SDS011;6211;49.124;9.152;2023-05-07T13:24:08;0.90;;;0.90;;
12296;SDS011;6211;49.124;9.152;2023-05-07T13:26:35;0.80;;;0.80;;
12296;SDS011;6211;49.124;9.152;2023-05-07T13:29:03;1.33;;;1.00;;
12296;SDS011;6211;49.124;9.152;2023-05-07T13:31:30;0.90;;;0.90;;
12296;SDS011;6211;49.124;9.152;2023-05-07T13:33:59;1.10;;;1.10;;
12296;SDS011;6211;49.124;9.152;2023-05-07T13:36:26;1.25;;;1.00;;
12296;SDS011;6211;49.124;9.152;2023-05-07T13:38:53;3.42;;;0.90;;
12296;SDS011;6211;49.124;9.152;2023-05-07T13:41:21;1.08;;;0.98;;
12296;SDS011;6211;49.124;9.152;2023-05-07T13:43:49;0.90;;;0.90;;
12296;SDS011;6211;49.124;9.152;2023-05-07T13:46:17;1.50;;;1.17;;
12296;SDS011;6211;49.124;9.152;2023-05-07T13:48:44;1.48;;;0.93;;
12296;SDS011;6211;49.124;9.152;2023-05-07T13:51:11;1.20;;;1.00;;
12296;SDS011;6211;49.124;9.152;2023-05-07T13:53:38;4.45;;;0.98;;
12296;SDS011;6211;49.124;9.152;2023-05-07T13:56:05;0.93;;;0.90;;
12296;SDS011;6211;49.124;9.152;2023-05-07T13:58:34;3.10;;;1.20;;
12296;SDS011;6211;49.124;9.152;2023-05-07T14:01:01;1.10;;;1.10;;
12296;SDS011;6211;49.124;9.152;2023-05-07T14:03:29;1.30;;;1.20;;
12296;SDS011;6211;49.124;9.152;2023-05-07T14:05:56;2.88;;;1.17;;
12296;SDS011;6211;49.124;9.152;2023-05-07T14:08:25;1.63;;;1.20;;
12296;SDS011;6211;49.124;9.152;2023-05-07T14:10:52;1.30;;;1.20;;
12296;SDS011;6211;49.124;9.152;2023-05-07T14:13:19;2.25;;;1.10;;
12296;SDS011;6211;49.124;9.152;2023-05-07T14:15:47;1.30;;;1.20;;
12296;SDS011;6211;49.124;9.152;2023-05-07T14:18:14;3.38;;;1.40;;
12296;SDS011;6211;49.124;9.152;2023-05-07T14:20:41;3.28;;;1.60;;
12296;SDS011;6211;49.124;9.152;2023-05-07T14:23:11;2.55;;;1.70;;
12296;SDS011;6211;49.124;9.152;2023-05-07T14:25:38;2.70;;;1.80;;
12296;SDS011;6211;49.124;9.152;2023-05-07T14:28:06;3.00;;;1.98;;
12296;SDS011;6211;49.124;9.152;2023-05-07T14:30:33;1.90;;;1.80;;
12296;SDS011;6211;49.124;9.152;2023-05-07T14:33:01;2.40;;;1.60;;
12296;SDS011;6211;49.124;9.152;2023-05-07T14:35:28;1.85;;;1.75;;
12296;SDS011;6211;49.124;9.152;2023-05-07T14:37:55;2.70;;;1.80;;
12296;SDS011;6211;49.124;9.152;2023-05-07T14:40:22;2.15;;;1.83;;
12296;SDS011;6211;49.124;9.152;2023-05-07T14:42:50;2.50;;;1.77;;
12296;SDS011;6211;49.124;9.152;2023-05-07T14:45:17;4.90;;;1.83;;
12296;SDS011;6211;49.124;9.152;2023-05-07T14:47:44;1.70;;;1.60;;
12296;SDS011;6211;49.124;9.152;2023-05-07T14:50:12;3.63;;;1.70;;
12296;SDS011;6211;49.124;9.152;2023-05-07T14:52:39;2.63;;;1.85;;
12296;SDS011;6211;49.124;9.152;2023-05-07T14:55:07;1.77;;;1.67;;
12296;SDS011;6211;49.124;9.152;2023-05-07T14:57:34;2.00;;;1.80;;
12296;SDS011;6211;49.124;9.152;2023-05-07T15:00:02;1.80;;;1.70;;
12296;SDS011;6211;49.124;9.152;2023-05-07T15:02:30;3.13;;;2.10;;
12296;SDS011;6211;49.124;9.152;2023-05-07T15:04:57;2.10;;;1.90;;
12296;SDS011;6211;49.124;9.152;2023-05-07T15:07:26;2.35;;;2.00;;
12296;SDS011;6211;49.124;9.152;2023-05-07T15:09:54;2.03;;;1.92;;